sensor_id;sensor_type;location;lat;lon;timestamp;P1;durP1;ratioP1;P2;durP2;ratioP2
74793;SDS011;63320;50.768;6.724;2023-03-01T00:01:15;17.98;;;8.95;;
74793;SDS011;63320;50.768;6.724;2023-03-01T00:03:42;18.77;;;9.32;;
74793;SDS011;63320;50.768;6.724;2023-03-01T00:06:08;15.65;;;8.95;;
74793;SDS011;63320;50.768;6.724;2023-03-01T00:08:33;17.10;;;9.82;;
74793;SDS011;63320;50.768;6.724;2023-03-01T00:11:02;18.52;;;9.95;;
74793;SDS011;63320;50.768;6.724;2023-03-01T00:13:28;19.27;;;9.90;;
74793;SDS011;63320;50.768;6.724;2023-03-01T00:15:54;16.23;;;9.10;;
74793;SDS011;63320;50.768;6.724;2023-03-01T00:18:19;16.23;;;8.75;;
74793;SDS011;63320;50.768;6.724;2023-03-01T00:20:48;14.05;;;8.55;;
74793;SDS011;63320;50.768;6.724;2023-03-01T00:23:14;16.40;;;9.13;;
74793;SDS011;63320;50.768;6.724;2023-03-01T00:25:41;15.13;;;9.85;;
74793;SDS011;63320;50.768;6.724;2023-03-01T00:28:07;16.52;;;9.73;;
74793;SDS011;63320;50.768;6.724;2023-03-01T00:30:33;16.25;;;8.30;;
74793;SDS011;63320;50.768;6.724;2023-03-01T00:32:58;16.58;;;8.15;;
74793;SDS011;63320;50.768;6.724;2023-03-01T00:35:23;16.75;;;8.95;;
74793;SDS011;63320;50.768;6.724;2023-03-01T00:37:49;13.93;;;7.30;;
74793;SDS011;63320;50.768;6.724;2023-03-01T00:40:14;15.60;;;7.63;;
74793;SDS011;63320;50.768;6.724;2023-03-01T00:42:40;15.10;;;7.97;;
74793;SDS011;63320;50.768;6.724;2023-03-01T00:45:07;12.43;;;7.35;;
74793;SDS011;63320;50.768;6.724;2023-03-01T00:47:33;14.63;;;7.40;;
74793;SDS011;63320;50.768;6.724;2023-03-01T00:49:58;13.35;;;7.05;;
74793;SDS011;63320;50.768;6.724;2023-03-01T00:52:23;13.68;;;7.78;;
74793;SDS011;63320;50.768;6.724;2023-03-01T00:54:51;13.27;;;7.65;;
74793;SDS011;63320;50.768;6.724;2023-03-01T00:57:17;13.07;;;7.50;;
74793;SDS011;63320;50.768;6.724;2023-03-01T00:59:42;13.80;;;8.43;;
74793;SDS011;63320;50.768;6.724;2023-03-01T01:02:09;15.48;;;8.27;;
74793;SDS011;63320;50.768;6.724;2023-03-01T01:04:34;14.50;;;7.55;;
74793;SDS011;63320;50.768;6.724;2023-03-01T01:06:59;14.63;;;8.65;;
74793;SDS011;63320;50.768;6.724;2023-03-01T01:09:25;17.73;;;8.43;;
74793;SDS011;63320;50.768;6.724;2023-03-01T01:11:50;12.98;;;7.88;;
74793;SDS011;63320;50.768;6.724;2023-03-01T01:14:16;14.77;;;8.20;;
74793;SDS011;63320;50.768;6.724;2023-03-01T01:16:42;15.38;;;8.52;;
74793;SDS011;63320;50.768;6.724;2023-03-01T01:19:09;13.27;;;8.10;;
74793;SDS011;63320;50.768;6.724;2023-03-01T01:21:35;14.10;;;7.72;;
74793;SDS011;63320;50.768;6.724;2023-03-01T01:24:02;15.02;;;8.00;;
74793;SDS011;63320;50.768;6.724;2023-03-01T01:26:28;13.65;;;7.70;;
74793;SDS011;63320;50.768;6.724;2023-03-01T01:28:55;16.23;;;8.70;;
74793;SDS011;63320;50.768;6.724;2023-03-01T01:31:21;13.68;;;7.82;;
74793;SDS011;63320;50.768;6.724;2023-03-01T01:33:47;14.90;;;8.02;;
74793;SDS011;63320;50.768;6.724;2023-03-01T01:36:13;14.85;;;8.18;;
74793;SDS011;63320;50.768;6.724;2023-03-01T01:38:39;15.20;;;7.93;;
74793;SDS011;63320;50.768;6.724;2023-03-01T01:41:05;14.05;;;7.43;;
74793;SDS011;63320;50.768;6.724;2023-03-01T01:43:32;15.82;;;7.82;;
74793;SDS011;63320;50.768;6.724;2023-03-01T01:45:59;14.02;;;7.75;;
74793;SDS011;63320;50.768;6.724;2023-03-01T01:48:31;12.13;;;7.18;;
74793;SDS011;63320;50.768;6.724;2023-03-01T01:51:02;14.70;;;8.10;;
74793;SDS011;63320;50.768;6.724;2023-03-01T01:53:29;15.70;;;8.73;;
74793;SDS011;63320;50.768;6.724;2023-03-01T01:55:56;15.52;;;8.02;;
74793;SDS011;63320;50.768;6.724;2023-03-01T01:58:25;16.33;;;8.27;;
74793;SDS011;63320;50.768;6.724;2023-03-01T02:00:55;12.57;;;7.93;;
74793;SDS011;63320;50.768;6.724;2023-03-01T02:03:22;15.75;;;8.23;;
74793;SDS011;63320;50.768;6.724;2023-03-01T02:05:51;14.50;;;7.70;;
74793;SDS011;63320;50.768;6.724;2023-03-01T02:08:20;14.23;;;7.53;;
74793;SDS011;63320;50.768;6.724;2023-03-01T02:10:49;14.05;;;7.80;;
74793;SDS011;63320;50.768;6.724;2023-03-01T02:13:16;13.05;;;7.60;;
74793;SDS011;63320;50.768;6.724;2023-03-01T02:15:41;14.52;;;7.53;;
74793;SDS011;63320;50.768;6.724;2023-03-01T02:18:07;14.07;;;7.75;;
74793;SDS011;63320;50.768;6.724;2023-03-01T02:20:35;16.13;;;7.97;;
74793;SDS011;63320;50.768;6.724;2023-03-01T02:23:08;14.18;;;7.60;;
74793;SDS011;63320;50.768;6.724;2023-03-01T02:25:35;15.52;;;7.53;;
74793;SDS011;63320;50.768;6.724;2023-03-01T02:28:08;13.73;;;7.43;;
74793;SDS011;63320;50.768;6.724;2023-03-01T02:30:37;12.38;;;7.55;;
74793;SDS011;63320;50.768;6.724;2023-03-01T02:33:04;15.70;;;8.38;;
74793;SDS011;63320;50.768;6.724;2023-03-01T02:35:30;16.98;;;7.65;;
74793;SDS011;63320;50.768;6.724;2023-03-01T02:37:59;14.32;;;7.57;;
74793;SDS011;63320;50.768;6.724;2023-03-01T02:40:26;15.02;;;8.05;;
74793;SDS011;63320;50.768;6.724;2023-03-01T02:42:54;16.73;;;8.43;;
74793;SDS011;63320;50.768;6.724;2023-03-01T02:45:22;18.60;;;8.15;;
74793;SDS011;63320;50.768;6.724;2023-03-01T02:47:48;14.63;;;8.50;;
74793;SDS011;63320;50.768;6.724;2023-03-01T02:50:15;15.77;;;8.80;;
74793;SDS011;63320;50.768;6.724;2023-03-01T02:52:52;14.88;;;8.52;;
74793;SDS011;63320;50.768;6.724;2023-03-01T02:55:22;15.52;;;8.18;;
74793;SDS011;63320;50.768;6.724;2023-03-01T02:57:48;13.70;;;8.25;;
74793;SDS011;63320;50.768;6.724;2023-03-01T03:00:15;15.45;;;9.30;;
74793;SDS011;63320;50.768;6.724;2023-03-01T03:02:43;14.15;;;8.70;;
74793;SDS011;63320;50.768;6.724;2023-03-01T03:05:10;16.48;;;8.57;;
74793;SDS011;63320;50.768;6.724;2023-03-01T03:07:37;17.17;;;8.07;;
74793;SDS011;63320;50.768;6.724;2023-03-01T03:10:05;17.48;;;8.55;;
74793;SDS011;63320;50.768;6.724;2023-03-01T03:12:32;14.38;;;8.35;;
74793;SDS011;63320;50.768;6.724;2023-03-01T03:14:57;15.63;;;9.23;;
74793;SDS011;63320;50.768;6.724;2023-03-01T03:17:23;17.45;;;8.98;;
74793;SDS011;63320;50.768;6.724;2023-03-01T03:19:48;18.25;;;9.02;;
74793;SDS011;63320;50.768;6.724;2023-03-01T03:22:15;14.93;;;8.55;;
74793;SDS011;63320;50.768;6.724;2023-03-01T03:24:40;14.65;;;8.57;;
74793;SDS011;63320;50.768;6.724;2023-03-01T03:27:06;16.75;;;8.52;;
74793;SDS011;63320;50.768;6.724;2023-03-01T03:29:32;16.42;;;8.70;;
74793;SDS011;63320;50.768;6.724;2023-03-01T03:31:58;16.02;;;8.93;;
74793;SDS011;63320;50.768;6.724;2023-03-01T03:34:23;15.93;;;8.80;;
74793;SDS011;63320;50.768;6.724;2023-03-01T03:36:52;17.38;;;8.73;;
74793;SDS011;63320;50.768;6.724;2023-03-01T03:39:19;18.02;;;8.57;;
74793;SDS011;63320;50.768;6.724;2023-03-01T03:41:44;14.95;;;8.85;;
74793;SDS011;63320;50.768;6.724;2023-03-01T03:44:10;15.50;;;9.07;;
74793;SDS011;63320;50.768;6.724;2023-03-01T03:46:35;16.35;;;9.23;;
74793;SDS011;63320;50.768;6.724;2023-03-01T03:49:00;17.08;;;8.85;;
74793;SDS011;63320;50.768;6.724;2023-03-01T03:51:26;16.98;;;9.30;;
74793;SDS011;63320;50.768;6.724;2023-03-01T03:53:51;20.25;;;10.13;;
74793;SDS011;63320;50.768;6.724;2023-03-01T03:56:17;24.15;;;10.57;;
74793;SDS011;63320;50.768;6.724;2023-03-01T03:58:43;20.40;;;9.43;;
74793;SDS011;63320;50.768;6.724;2023-03-01T04:01:08;17.50;;;9.40;;
74793;SDS011;63320;50.768;6.724;2023-03-01T04:03:34;17.63;;;9.48;;
74793;SDS011;63320;50.768;6.724;2023-03-01T04:05:59;17.38;;;9.20;;
74793;SDS011;63320;50.768;6.724;2023-03-01T04:08:26;19.73;;;9.35;;
74793;SDS011;63320;50.768;6.724;2023-03-01T04:10:55;16.67;;;8.98;;
74793;SDS011;63320;50.768;6.724;2023-03-01T04:13:24;19.67;;;9.45;;
74793;SDS011;63320;50.768;6.724;2023-03-01T04:15:50;19.90;;;9.23;;
74793;SDS011;63320;50.768;6.724;2023-03-01T04:18:16;19.17;;;9.20;;
74793;SDS011;63320;50.768;6.724;2023-03-01T04:20:43;18.25;;;8.90;;
74793;SDS011;63320;50.768;6.724;2023-03-01T04:23:09;17.98;;;9.60;;
74793;SDS011;63320;50.768;6.724;2023-03-01T04:25:37;16.30;;;9.52;;
74793;SDS011;63320;50.768;6.724;2023-03-01T04:28:03;17.63;;;10.10;;
74793;SDS011;63320;50.768;6.724;2023-03-01T04:30:30;19.58;;;10.30;;
74793;SDS011;63320;50.768;6.724;2023-03-01T04:32:55;17.25;;;9.68;;
74793;SDS011;63320;50.768;6.724;2023-03-01T04:35:20;17.70;;;9.48;;
74793;SDS011;63320;50.768;6.724;2023-03-01T04:37:46;17.85;;;9.23;;
74793;SDS011;63320;50.768;6.724;2023-03-01T04:40:11;18.50;;;10.80;;
74793;SDS011;63320;50.768;6.724;2023-03-01T04:42:37;19.98;;;10.63;;
74793;SDS011;63320;50.768;6.724;2023-03-01T04:45:02;17.20;;;9.85;;
74793;SDS011;63320;50.768;6.724;2023-03-01T04:47:29;25.40;;;12.10;;
74793;SDS011;63320;50.768;6.724;2023-03-01T04:49:55;20.77;;;11.27;;
74793;SDS011;63320;50.768;6.724;2023-03-01T04:52:20;20.95;;;10.98;;
74793;SDS011;63320;50.768;6.724;2023-03-01T04:54:45;17.33;;;9.43;;
74793;SDS011;63320;50.768;6.724;2023-03-01T04:57:10;17.85;;;8.95;;
74793;SDS011;63320;50.768;6.724;2023-03-01T04:59:36;16.42;;;9.07;;
74793;SDS011;63320;50.768;6.724;2023-03-01T05:02:01;14.90;;;8.88;;
74793;SDS011;63320;50.768;6.724;2023-03-01T05:04:28;17.20;;;9.07;;
74793;SDS011;63320;50.768;6.724;2023-03-01T05:06:53;17.30;;;9.05;;
74793;SDS011;63320;50.768;6.724;2023-03-01T05:09:18;18.42;;;8.88;;
74793;SDS011;63320;50.768;6.724;2023-03-01T05:11:44;16.27;;;8.75;;
74793;SDS011;63320;50.768;6.724;2023-03-01T05:14:09;16.45;;;8.00;;
74793;SDS011;63320;50.768;6.724;2023-03-01T05:16:35;16.08;;;8.30;;
74793;SDS011;63320;50.768;6.724;2023-03-01T05:19:01;18.70;;;9.02;;
74793;SDS011;63320;50.768;6.724;2023-03-01T05:21:28;18.50;;;8.85;;
74793;SDS011;63320;50.768;6.724;2023-03-01T05:23:54;16.45;;;8.73;;
74793;SDS011;63320;50.768;6.724;2023-03-01T05:26:19;17.48;;;8.73;;
74793;SDS011;63320;50.768;6.724;2023-03-01T05:28:45;15.20;;;8.80;;
74793;SDS011;63320;50.768;6.724;2023-03-01T05:31:10;18.48;;;9.68;;
74793;SDS011;63320;50.768;6.724;2023-03-01T05:33:36;14.98;;;8.30;;
74793;SDS011;63320;50.768;6.724;2023-03-01T05:36:01;16.58;;;8.85;;
74793;SDS011;63320;50.768;6.724;2023-03-01T05:38:28;19.08;;;8.73;;
74793;SDS011;63320;50.768;6.724;2023-03-01T05:40:53;17.55;;;8.68;;
74793;SDS011;63320;50.768;6.724;2023-03-01T05:43:19;17.85;;;8.80;;
74793;SDS011;63320;50.768;6.724;2023-03-01T05:45:44;15.20;;;9.05;;
74793;SDS011;63320;50.768;6.724;2023-03-01T05:48:10;15.77;;;9.00;;
74793;SDS011;63320;50.768;6.724;2023-03-01T05:50:36;17.75;;;8.85;;
74793;SDS011;63320;50.768;6.724;2023-03-01T05:53:04;16.73;;;8.52;;
74793;SDS011;63320;50.768;6.724;2023-03-01T05:55:32;15.13;;;9.15;;
74793;SDS011;63320;50.768;6.724;2023-03-01T05:57:58;17.00;;;8.35;;
74793;SDS011;63320;50.768;6.724;2023-03-01T06:00:24;16.35;;;8.38;;
74793;SDS011;63320;50.768;6.724;2023-03-01T06:02:49;17.92;;;8.90;;
74793;SDS011;63320;50.768;6.724;2023-03-01T06:05:15;16.20;;;8.93;;
74793;SDS011;63320;50.768;6.724;2023-03-01T06:07:40;14.57;;;7.97;;
74793;SDS011;63320;50.768;6.724;2023-03-01T06:10:07;19.08;;;9.43;;
74793;SDS011;63320;50.768;6.724;2023-03-01T06:12:35;17.23;;;8.45;;
74793;SDS011;63320;50.768;6.724;2023-03-01T06:15:02;23.05;;;9.13;;
74793;SDS011;63320;50.768;6.724;2023-03-01T06:17:29;17.48;;;8.50;;
74793;SDS011;63320;50.768;6.724;2023-03-01T06:19:56;18.02;;;8.70;;
74793;SDS011;63320;50.768;6.724;2023-03-01T06:22:21;21.25;;;9.32;;
74793;SDS011;63320;50.768;6.724;2023-03-01T06:24:46;24.80;;;9.63;;
74793;SDS011;63320;50.768;6.724;2023-03-01T06:27:12;25.52;;;9.63;;
74793;SDS011;63320;50.768;6.724;2023-03-01T06:29:38;31.60;;;11.25;;
74793;SDS011;63320;50.768;6.724;2023-03-01T06:32:04;29.42;;;10.50;;
74793;SDS011;63320;50.768;6.724;2023-03-01T06:34:30;24.98;;;10.63;;
74793;SDS011;63320;50.768;6.724;2023-03-01T06:36:56;20.95;;;9.57;;
74793;SDS011;63320;50.768;6.724;2023-03-01T06:39:21;28.58;;;11.00;;
74793;SDS011;63320;50.768;6.724;2023-03-01T06:41:46;38.03;;;13.50;;
74793;SDS011;63320;50.768;6.724;2023-03-01T06:44:12;25.75;;;10.95;;
74793;SDS011;63320;50.768;6.724;2023-03-01T06:46:39;22.55;;;10.57;;
74793;SDS011;63320;50.768;6.724;2023-03-01T06:49:05;26.88;;;11.07;;
74793;SDS011;63320;50.768;6.724;2023-03-01T06:51:30;23.17;;;10.60;;
74793;SDS011;63320;50.768;6.724;2023-03-01T06:53:55;30.02;;;11.63;;
74793;SDS011;63320;50.768;6.724;2023-03-01T06:56:21;25.52;;;9.90;;
74793;SDS011;63320;50.768;6.724;2023-03-01T06:58:46;21.35;;;9.80;;
74793;SDS011;63320;50.768;6.724;2023-03-01T07:01:11;24.08;;;10.02;;
74793;SDS011;63320;50.768;6.724;2023-03-01T07:03:38;26.52;;;10.45;;
74793;SDS011;63320;50.768;6.724;2023-03-01T07:06:04;30.63;;;11.45;;
74793;SDS011;63320;50.768;6.724;2023-03-01T07:08:29;35.00;;;13.35;;
74793;SDS011;63320;50.768;6.724;2023-03-01T07:10:55;34.10;;;11.48;;
74793;SDS011;63320;50.768;6.724;2023-03-01T07:13:21;33.40;;;11.82;;
74793;SDS011;63320;50.768;6.724;2023-03-01T07:15:46;31.35;;;10.98;;
74793;SDS011;63320;50.768;6.724;2023-03-01T07:18:12;25.63;;;10.35;;
74793;SDS011;63320;50.768;6.724;2023-03-01T07:20:39;21.02;;;9.85;;
74793;SDS011;63320;50.768;6.724;2023-03-01T07:23:05;26.75;;;11.35;;
74793;SDS011;63320;50.768;6.724;2023-03-01T07:25:30;21.58;;;10.43;;
74793;SDS011;63320;50.768;6.724;2023-03-01T07:27:56;29.15;;;12.45;;
74793;SDS011;63320;50.768;6.724;2023-03-01T07:30:21;23.90;;;12.50;;
74793;SDS011;63320;50.768;6.724;2023-03-01T07:32:47;25.70;;;11.38;;
74793;SDS011;63320;50.768;6.724;2023-03-01T07:35:13;22.15;;;10.40;;
74793;SDS011;63320;50.768;6.724;2023-03-01T07:37:39;25.58;;;9.98;;
74793;SDS011;63320;50.768;6.724;2023-03-01T07:40:05;31.63;;;10.80;;
74793;SDS011;63320;50.768;6.724;2023-03-01T07:42:33;21.67;;;9.90;;
74793;SDS011;63320;50.768;6.724;2023-03-01T07:44:58;24.00;;;10.43;;
74793;SDS011;63320;50.768;6.724;2023-03-01T07:47:23;19.85;;;9.65;;
74793;SDS011;63320;50.768;6.724;2023-03-01T07:49:49;19.75;;;10.77;;
74793;SDS011;63320;50.768;6.724;2023-03-01T07:52:14;17.98;;;9.88;;
74793;SDS011;63320;50.768;6.724;2023-03-01T07:54:42;21.92;;;9.18;;
74793;SDS011;63320;50.768;6.724;2023-03-01T07:57:08;18.55;;;9.57;;
74793;SDS011;63320;50.768;6.724;2023-03-01T07:59:33;20.50;;;10.07;;
74793;SDS011;63320;50.768;6.724;2023-03-01T08:01:58;31.92;;;14.25;;
74793;SDS011;63320;50.768;6.724;2023-03-01T08:04:24;43.78;;;19.48;;
74793;SDS011;63320;50.768;6.724;2023-03-01T08:06:49;49.97;;;19.98;;
74793;SDS011;63320;50.768;6.724;2023-03-01T08:09:15;34.88;;;17.25;;
74793;SDS011;63320;50.768;6.724;2023-03-01T08:11:41;28.70;;;15.15;;
74793;SDS011;63320;50.768;6.724;2023-03-01T08:14:07;35.28;;;15.65;;
74793;SDS011;63320;50.768;6.724;2023-03-01T08:16:32;27.13;;;14.27;;
74793;SDS011;63320;50.768;6.724;2023-03-01T08:19:03;25.85;;;13.63;;
74793;SDS011;63320;50.768;6.724;2023-03-01T08:21:29;25.08;;;13.38;;
74793;SDS011;63320;50.768;6.724;2023-03-01T08:23:54;22.52;;;12.30;;
74793;SDS011;63320;50.768;6.724;2023-03-01T08:26:20;23.27;;;12.20;;
74793;SDS011;63320;50.768;6.724;2023-03-01T08:28:48;22.20;;;11.63;;
74793;SDS011;63320;50.768;6.724;2023-03-01T08:31:15;25.23;;;11.57;;
74793;SDS011;63320;50.768;6.724;2023-03-01T08:33:42;24.17;;;11.05;;
74793;SDS011;63320;50.768;6.724;2023-03-01T08:36:08;23.08;;;11.57;;
74793;SDS011;63320;50.768;6.724;2023-03-01T08:38:33;29.42;;;11.80;;
74793;SDS011;63320;50.768;6.724;2023-03-01T08:40:59;19.25;;;10.27;;
74793;SDS011;63320;50.768;6.724;2023-03-01T08:43:25;20.13;;;10.90;;
74793;SDS011;63320;50.768;6.724;2023-03-01T08:45:52;25.88;;;12.07;;
74793;SDS011;63320;50.768;6.724;2023-03-01T08:48:17;22.13;;;12.63;;
74793;SDS011;63320;50.768;6.724;2023-03-01T08:50:43;22.35;;;12.88;;
74793;SDS011;63320;50.768;6.724;2023-03-01T08:53:08;24.77;;;12.27;;
74793;SDS011;63320;50.768;6.724;2023-03-01T08:55:33;21.83;;;11.75;;
74793;SDS011;63320;50.768;6.724;2023-03-01T08:57:59;21.10;;;12.18;;
74793;SDS011;63320;50.768;6.724;2023-03-01T09:00:24;21.60;;;12.60;;
74793;SDS011;63320;50.768;6.724;2023-03-01T09:02:51;21.75;;;11.57;;
74793;SDS011;63320;50.768;6.724;2023-03-01T09:05:16;22.90;;;11.60;;
74793;SDS011;63320;50.768;6.724;2023-03-01T09:07:41;26.02;;;13.27;;
74793;SDS011;63320;50.768;6.724;2023-03-01T09:10:07;22.02;;;11.82;;
74793;SDS011;63320;50.768;6.724;2023-03-01T09:12:34;20.25;;;11.75;;
74793;SDS011;63320;50.768;6.724;2023-03-01T09:14:59;29.95;;;14.40;;
74793;SDS011;63320;50.768;6.724;2023-03-01T09:17:24;23.80;;;12.25;;
74793;SDS011;63320;50.768;6.724;2023-03-01T09:19:51;22.35;;;12.05;;
74793;SDS011;63320;50.768;6.724;2023-03-01T09:22:16;23.30;;;12.93;;
74793;SDS011;63320;50.768;6.724;2023-03-01T09:24:42;21.85;;;12.13;;
74793;SDS011;63320;50.768;6.724;2023-03-01T09:27:07;18.58;;;11.43;;
74793;SDS011;63320;50.768;6.724;2023-03-01T09:29:32;17.75;;;10.70;;
74793;SDS011;63320;50.768;6.724;2023-03-01T09:31:58;19.52;;;12.38;;
74793;SDS011;63320;50.768;6.724;2023-03-01T09:34:23;20.77;;;11.13;;
74793;SDS011;63320;50.768;6.724;2023-03-01T09:36:50;19.15;;;10.65;;
74793;SDS011;63320;50.768;6.724;2023-03-01T09:39:15;21.60;;;12.05;;
74793;SDS011;63320;50.768;6.724;2023-03-01T09:41:45;21.00;;;11.45;;
74793;SDS011;63320;50.768;6.724;2023-03-01T09:44:25;20.88;;;11.50;;
74793;SDS011;63320;50.768;6.724;2023-03-01T09:46:56;23.02;;;11.32;;
74793;SDS011;63320;50.768;6.724;2023-03-01T09:49:23;19.50;;;11.13;;
74793;SDS011;63320;50.768;6.724;2023-03-01T09:51:57;22.95;;;12.13;;
74793;SDS011;63320;50.768;6.724;2023-03-01T09:54:24;22.10;;;11.48;;
74793;SDS011;63320;50.768;6.724;2023-03-01T09:56:53;24.23;;;12.27;;
74793;SDS011;63320;50.768;6.724;2023-03-01T09:59:28;21.13;;;12.15;;
74793;SDS011;63320;50.768;6.724;2023-03-01T10:01:59;21.05;;;11.65;;
74793;SDS011;63320;50.768;6.724;2023-03-01T10:04:38;20.48;;;11.05;;
74793;SDS011;63320;50.768;6.724;2023-03-01T10:07:16;20.33;;;12.00;;
74793;SDS011;63320;50.768;6.724;2023-03-01T10:09:49;23.25;;;11.70;;
74793;SDS011;63320;50.768;6.724;2023-03-01T10:12:16;24.50;;;12.40;;
74793;SDS011;63320;50.768;6.724;2023-03-01T10:14:47;19.48;;;11.70;;
74793;SDS011;63320;50.768;6.724;2023-03-01T10:17:20;23.80;;;11.65;;
74793;SDS011;63320;50.768;6.724;2023-03-01T10:19:52;23.17;;;11.45;;
74793;SDS011;63320;50.768;6.724;2023-03-01T10:22:20;21.63;;;12.18;;
74793;SDS011;63320;50.768;6.724;2023-03-01T10:24:47;21.52;;;11.80;;
74793;SDS011;63320;50.768;6.724;2023-03-01T10:27:16;21.33;;;11.23;;
74793;SDS011;63320;50.768;6.724;2023-03-01T10:32:14;21.50;;;11.05;;
74793;SDS011;63320;50.768;6.724;2023-03-01T10:34:39;22.70;;;12.30;;
74793;SDS011;63320;50.768;6.724;2023-03-01T10:37:09;21.25;;;11.30;;
74793;SDS011;63320;50.768;6.724;2023-03-01T10:39:37;22.77;;;11.65;;
74793;SDS011;63320;50.768;6.724;2023-03-01T10:42:29;20.15;;;10.93;;
74793;SDS011;63320;50.768;6.724;2023-03-01T10:44:57;20.92;;;12.45;;
74793;SDS011;63320;50.768;6.724;2023-03-01T10:47:24;20.80;;;10.50;;
74793;SDS011;63320;50.768;6.724;2023-03-01T10:49:55;19.98;;;10.73;;
74793;SDS011;63320;50.768;6.724;2023-03-01T10:52:23;20.90;;;11.23;;
74793;SDS011;63320;50.768;6.724;2023-03-01T10:54:52;17.65;;;10.05;;
74793;SDS011;63320;50.768;6.724;2023-03-01T10:57:36;18.13;;;9.82;;
74793;SDS011;63320;50.768;6.724;2023-03-01T11:00:14;18.55;;;10.40;;
74793;SDS011;63320;50.768;6.724;2023-03-01T11:02:46;18.98;;;10.90;;
74793;SDS011;63320;50.768;6.724;2023-03-01T11:05:16;20.90;;;10.98;;
74793;SDS011;63320;50.768;6.724;2023-03-01T11:07:47;19.27;;;10.45;;
74793;SDS011;63320;50.768;6.724;2023-03-01T11:10:15;17.17;;;10.20;;
74793;SDS011;63320;50.768;6.724;2023-03-01T11:12:43;20.80;;;10.13;;
74793;SDS011;63320;50.768;6.724;2023-03-01T11:15:15;21.25;;;10.80;;
74793;SDS011;63320;50.768;6.724;2023-03-01T11:17:47;22.13;;;10.77;;
74793;SDS011;63320;50.768;6.724;2023-03-01T11:20:15;19.83;;;10.23;;
74793;SDS011;63320;50.768;6.724;2023-03-01T11:22:49;18.88;;;10.15;;
74793;SDS011;63320;50.768;6.724;2023-03-01T11:25:19;21.52;;;10.45;;
74793;SDS011;63320;50.768;6.724;2023-03-01T11:27:49;19.55;;;10.48;;
74793;SDS011;63320;50.768;6.724;2023-03-01T11:30:15;19.02;;;10.75;;
74793;SDS011;63320;50.768;6.724;2023-03-01T11:35:14;18.33;;;10.40;;
74793;SDS011;63320;50.768;6.724;2023-03-01T11:37:44;23.45;;;11.18;;
74793;SDS011;63320;50.768;6.724;2023-03-01T11:40:26;19.15;;;11.35;;
74793;SDS011;63320;50.768;6.724;2023-03-01T11:42:57;20.83;;;11.73;;
74793;SDS011;63320;50.768;6.724;2023-03-01T11:45:30;22.15;;;11.13;;
74793;SDS011;63320;50.768;6.724;2023-03-01T11:48:13;22.50;;;11.02;;
74793;SDS011;63320;50.768;6.724;2023-03-01T11:50:51;22.50;;;10.80;;
74793;SDS011;63320;50.768;6.724;2023-03-01T11:53:32;20.88;;;10.98;;
74793;SDS011;63320;50.768;6.724;2023-03-01T11:56:15;21.77;;;10.88;;
74793;SDS011;63320;50.768;6.724;2023-03-01T12:01:55;19.88;;;10.90;;
74793;SDS011;63320;50.768;6.724;2023-03-01T12:04:45;18.38;;;10.57;;
74793;SDS011;63320;50.768;6.724;2023-03-01T12:07:23;19.50;;;10.50;;
74793;SDS011;63320;50.768;6.724;2023-03-01T12:10:01;23.92;;;9.93;;
74793;SDS011;63320;50.768;6.724;2023-03-01T12:12:47;22.48;;;10.32;;
74793;SDS011;63320;50.768;6.724;2023-03-01T12:15:28;19.88;;;12.60;;
74793;SDS011;63320;50.768;6.724;2023-03-01T12:18:06;19.90;;;10.80;;
74793;SDS011;63320;50.768;6.724;2023-03-01T12:20:43;21.27;;;10.55;;
74793;SDS011;63320;50.768;6.724;2023-03-01T12:23:21;22.20;;;10.95;;
74793;SDS011;63320;50.768;6.724;2023-03-01T12:25:58;20.75;;;11.15;;
74793;SDS011;63320;50.768;6.724;2023-03-01T12:28:36;20.23;;;11.45;;
74793;SDS011;63320;50.768;6.724;2023-03-01T12:31:23;19.60;;;11.68;;
74793;SDS011;63320;50.768;6.724;2023-03-01T12:34:03;20.42;;;10.73;;
74793;SDS011;63320;50.768;6.724;2023-03-01T12:36:44;18.10;;;10.15;;
74793;SDS011;63320;50.768;6.724;2023-03-01T12:39:24;17.20;;;9.93;;
74793;SDS011;63320;50.768;6.724;2023-03-01T12:42:01;16.30;;;9.50;;
74793;SDS011;63320;50.768;6.724;2023-03-01T12:47:18;18.90;;;10.18;;
74793;SDS011;63320;50.768;6.724;2023-03-01T12:49:53;16.95;;;9.43;;
74793;SDS011;63320;50.768;6.724;2023-03-01T12:52:22;16.95;;;9.65;;
74793;SDS011;63320;50.768;6.724;2023-03-01T12:54:53;21.75;;;11.18;;
74793;SDS011;63320;50.768;6.724;2023-03-01T12:57:24;15.27;;;8.70;;
74793;SDS011;63320;50.768;6.724;2023-03-01T12:59:57;13.80;;;8.15;;
74793;SDS011;63320;50.768;6.724;2023-03-01T13:02:31;16.40;;;8.23;;
74793;SDS011;63320;50.768;6.724;2023-03-01T13:05:06;14.20;;;8.18;;
74793;SDS011;63320;50.768;6.724;2023-03-01T13:07:49;17.83;;;8.32;;
74793;SDS011;63320;50.768;6.724;2023-03-01T13:10:21;16.38;;;9.30;;
74793;SDS011;63320;50.768;6.724;2023-03-01T13:13:01;15.38;;;8.95;;
74793;SDS011;63320;50.768;6.724;2023-03-01T13:15:37;16.48;;;8.80;;
74793;SDS011;63320;50.768;6.724;2023-03-01T13:18:03;15.68;;;8.93;;
74793;SDS011;63320;50.768;6.724;2023-03-01T13:20:51;14.93;;;8.15;;
74793;SDS011;63320;50.768;6.724;2023-03-01T13:23:25;16.00;;;7.95;;
74793;SDS011;63320;50.768;6.724;2023-03-01T13:26:03;17.27;;;8.60;;
74793;SDS011;63320;50.768;6.724;2023-03-01T13:28:46;15.73;;;8.23;;
74793;SDS011;63320;50.768;6.724;2023-03-01T13:37:10;14.98;;;8.27;;
74793;SDS011;63320;50.768;6.724;2023-03-01T13:39:43;16.67;;;7.80;;
74793;SDS011;63320;50.768;6.724;2023-03-01T13:44:57;14.23;;;7.55;;
74793;SDS011;63320;50.768;6.724;2023-03-01T13:47:23;16.52;;;7.55;;
74793;SDS011;63320;50.768;6.724;2023-03-01T13:49:51;12.98;;;7.03;;
74793;SDS011;63320;50.768;6.724;2023-03-01T13:55:14;14.18;;;7.57;;
74793;SDS011;63320;50.768;6.724;2023-03-01T13:57:46;15.43;;;7.78;;
74793;SDS011;63320;50.768;6.724;2023-03-01T14:00:27;15.75;;;8.07;;
74793;SDS011;63320;50.768;6.724;2023-03-01T14:03:01;14.65;;;8.07;;
74793;SDS011;63320;50.768;6.724;2023-03-01T14:05:28;13.98;;;8.40;;
74793;SDS011;63320;50.768;6.724;2023-03-01T14:07:54;14.43;;;7.60;;
74793;SDS011;63320;50.768;6.724;2023-03-01T14:10:20;13.98;;;8.20;;
74793;SDS011;63320;50.768;6.724;2023-03-01T14:12:47;15.45;;;8.07;;
74793;SDS011;63320;50.768;6.724;2023-03-01T14:15:18;13.85;;;8.95;;
74793;SDS011;63320;50.768;6.724;2023-03-01T14:17:58;17.33;;;8.57;;
74793;SDS011;63320;50.768;6.724;2023-03-01T14:20:29;13.52;;;8.38;;
74793;SDS011;63320;50.768;6.724;2023-03-01T14:22:58;14.88;;;8.35;;
74793;SDS011;63320;50.768;6.724;2023-03-01T14:25:27;13.27;;;7.88;;
74793;SDS011;63320;50.768;6.724;2023-03-01T14:27:54;13.82;;;8.23;;
74793;SDS011;63320;50.768;6.724;2023-03-01T14:30:23;13.30;;;7.80;;
74793;SDS011;63320;50.768;6.724;2023-03-01T14:32:54;13.02;;;8.13;;
74793;SDS011;63320;50.768;6.724;2023-03-01T14:35:21;14.13;;;8.93;;
74793;SDS011;63320;50.768;6.724;2023-03-01T14:37:48;13.27;;;8.30;;
74793;SDS011;63320;50.768;6.724;2023-03-01T14:40:21;10.85;;;7.63;;
74793;SDS011;63320;50.768;6.724;2023-03-01T14:42:48;12.10;;;8.70;;
74793;SDS011;63320;50.768;6.724;2023-03-01T14:45:13;14.02;;;9.18;;
74793;SDS011;63320;50.768;6.724;2023-03-01T14:47:39;15.80;;;10.20;;
74793;SDS011;63320;50.768;6.724;2023-03-01T14:50:06;15.80;;;9.30;;
74793;SDS011;63320;50.768;6.724;2023-03-01T14:52:34;14.27;;;9.50;;
74793;SDS011;63320;50.768;6.724;2023-03-01T14:55:02;15.63;;;9.93;;
74793;SDS011;63320;50.768;6.724;2023-03-01T14:57:31;14.10;;;9.07;;